Time;durP1;ratioP1;P1;durP2;ratioP2;P2;SDS_P1;SDS_P2;PMS_P1;PMS_P2;Temp;Humidity;BMP_temperature;BMP_pressure;BME280_temperature;BME280_humidity;BME280_pressure;Samples;Min_cycle;Max_cycle;Signal;HPM_P1;HPM_P2
2021/12/25 00:00:50;;;;;;;;;;;;;;;-0.56;69.67;99591.31;5088883;28;19920;-85
2021/12/25 00:03:16;;;;;;;;;;;;;;;-0.67;69.53;99581.47;5086604;28;20398;-84
2021/12/25 00:05:42;;;;;;;;;;;;;;;-0.87;71.13;99584.34;5088324;28;20370;-84
2021/12/25 00:08:07;;;;;;;;;;;;;;;-1.01;71.02;99596.88;5088215;28;20030;-84
2021/12/25 00:10:33;;;;;;;;;;;;;;;-0.79;70.94;99593.25;5087860;28;20014;-83
2021/12/25 00:12:58;;;;;;;;;;;;;;;-0.99;71.80;99592.66;5088237;28;19956;-84
2021/12/25 00:15:23;;;;;;;;;;;;;;;-0.76;70.88;99595.00;5088204;28;19915;-84
2021/12/25 00:17:49;;;;;;;;;;;;;;;-0.91;71.64;99588.56;5088075;28;20394;-84
2021/12/25 00:20:14;;;;;;;;;;;;;;;-0.89;71.40;99604.16;5088344;28;19916;-84
2021/12/25 00:22:40;;;;;;;;;;;;;;;-0.79;71.26;99589.75;5087875;28;19976;-84
2021/12/25 00:25:05;;;;;;;;;;;;;;;-0.98;71.46;99598.69;5088199;28;19920;-84
2021/12/25 00:33:30;;;;;;;;;;;;;;;-0.74;70.79;99594.25;5093126;28;19928;-84
2021/12/25 00:35:13;;;;;;;;;;;;;;;-0.98;70.97;99581.44;5096851;28;19924;-84
2021/12/25 00:37:39;;;;;;;;;;;;;;;-0.83;71.01;99581.03;5107127;28;19920;-84
2021/12/25 00:40:04;;;;;;;;;;;;;;;-0.71;70.48;99570.16;5108344;28;19920;-84
2021/12/25 00:42:30;;;;;;;;;;;;;;;-0.74;69.56;99567.47;5107397;27;20355;-83
2021/12/25 00:44:56;;;;;;;;;;;;;;;-0.83;69.84;99570.66;5107704;28;19976;-84
2021/12/25 00:47:21;;;;;;;;;;;;;;;-0.79;69.56;99561.25;5107888;28;19920;-84
2021/12/25 00:49:47;;;;;;;;;;;;;;;-0.78;69.31;99561.31;5106566;28;20028;-84
2021/12/25 00:52:13;;;;;;;;;;;;;;;-0.71;69.27;99564.97;5108149;28;19926;-84
2021/12/25 00:54:38;;;;;;;;;;;;;;;-0.70;69.30;99566.69;5107150;28;20011;-85
2021/12/25 00:57:04;;;;;;;;;;;;;;;-0.69;68.95;99571.06;5107923;28;20081;-85
2021/12/25 00:59:29;;;;;;;;;;;;;;;-0.73;68.92;99576.97;5106397;28;20387;-83
2021/12/25 01:01:55;;;;;;;;;;;;;;;-0.74;68.82;99577.84;5106920;28;19976;-84
2021/12/25 01:04:20;;;;;;;;;;;;;;;-0.67;69.10;99566.78;5107481;28;20400;-84
2021/12/25 01:06:46;;;;;;;;;;;;;;;-0.71;69.31;99564.97;5105811;27;19920;-85
2021/12/25 01:09:12;;;;;;;;;;;;;;;-1.04;69.47;99557.09;5085879;28;19973;-84
2021/12/25 01:11:37;;;;;;;;;;;;;;;-0.85;69.58;99551.63;5086222;28;20464;-84
2021/12/25 01:14:21;;;;;;;;;;;;;;;-1.69;72.43;99566.31;5086882;28;19923;-84
2021/12/25 01:30:07;;;;;;;;;;;;;;;-1.11;72.38;99584.53;5106514;28;19916;-85
2021/12/25 01:33:02;;;;;;;;;;;;;;;-1.02;72.74;99584.78;5107163;28;19920;-84
2021/12/25 01:36:08;;;;;;;;;;;;;;;-1.19;72.47;99599.81;5106852;28;19923;-84
2021/12/25 01:38:49;;;;;;;;;;;;;;;-1.17;71.95;99598.16;5107004;28;19959;-84
2021/12/25 01:41:29;;;;;;;;;;;;;;;-1.14;71.68;99592.19;5108263;28;19969;-83
2021/12/25 01:49:23;;;;;;;;;;;;;;;-1.22;71.70;99594.56;5090987;28;19926;-83
2021/12/25 01:51:48;;;;;;;;;;;;;;;-1.41;72.60;99587.91;5103696;28;19919;-82
2021/12/25 01:54:13;;;;;;;;;;;;;;;-1.47;72.82;99583.44;5111494;28;19916;-82
2021/12/25 01:56:39;;;;;;;;;;;;;;;-1.43;72.62;99592.16;5110409;28;19927;-81
2021/12/25 01:59:04;;;;;;;;;;;;;;;-1.24;71.72;99598.78;5111204;28;19916;-82
2021/12/25 02:01:29;;;;;;;;;;;;;;;-1.19;71.61;99594.63;5111395;28;19918;-84
2021/12/25 02:03:55;;;;;;;;;;;;;;;-1.18;71.13;99590.34;5111203;28;19919;-83
2021/12/25 02:06:20;;;;;;;;;;;;;;;-1.26;71.23;99575.44;5111159;28;20053;-84
2021/12/25 02:08:46;;;;;;;;;;;;;;;-1.05;70.99;99576.94;5111123;28;20014;-83
2021/12/25 02:11:11;;;;;;;;;;;;;;;-1.14;70.89;99561.13;5111754;27;19927;-84
2021/12/25 02:13:38;;;;;;;;;;;;;;;-1.33;71.44;99559.66;5111231;28;19993;-84
2021/12/25 02:16:10;;;;;;;;;;;;;;;-1.04;71.04;99551.91;5111383;28;19920;-84
2021/12/25 02:19:31;;;;;;;;;;;;;;;-1.22;71.20;99557.41;5111309;28;20004;-84
2021/12/25 02:21:35;;;;;;;;;;;;;;;-1.25;71.58;99558.22;5104392;28;19923;-83
2021/12/25 02:24:01;;;;;;;;;;;;;;;-1.21;72.14;99552.28;5111651;28;20377;-84
2021/12/25 02:26:26;;;;;;;;;;;;;;;-1.21;71.99;99546.22;5110771;28;19916;-84
2021/12/25 02:28:52;;;;;;;;;;;;;;;-1.41;72.21;99549.09;5110698;28;19924;-83
2021/12/25 02:31:18;;;;;;;;;;;;;;;-1.79;73.56;99553.94;5110505;28;20015;-83
2021/12/25 02:33:43;;;;;;;;;;;;;;;-1.68;73.27;99556.88;5110322;28;19922;-84
2021/12/25 02:36:10;;;;;;;;;;;;;;;-1.25;72.95;99547.88;5110209;28;19965;-83
2021/12/25 02:38:36;;;;;;;;;;;;;;;-1.02;71.61;99556.31;5110928;28;19915;-83
2021/12/25 02:41:02;;;;;;;;;;;;;;;-0.91;71.61;99564.41;5110288;28;20035;-83
2021/12/25 02:43:27;;;;;;;;;;;;;;;-0.97;71.25;99551.25;5109356;28;20014;-83
2021/12/25 02:45:54;;;;;;;;;;;;;;;-0.79;71.07;99549.19;5109910;28;19923;-83
2021/12/25 02:48:20;;;;;;;;;;;;;;;-0.69;70.26;99555.50;5109203;28;19959;-83
2021/12/25 02:50:46;;;;;;;;;;;;;;;-0.74;70.11;99539.84;5109653;28;19919;-84
2021/12/25 02:53:11;;;;;;;;;;;;;;;-1.03;71.03;99548.50;5107724;28;20408;-85
2021/12/25 02:55:38;;;;;;;;;;;;;;;-1.05;71.56;99553.63;5109966;27;19924;-85
2021/12/25 02:58:04;;;;;;;;;;;;;;;-1.18;71.00;99552.38;5110137;28;19967;-85
2021/12/25 03:00:35;;;;;;;;;;;;;;;-1.31;72.11;99547.69;5109884;28;20774;-85
2021/12/25 03:03:03;;;;;;;;;;;;;;;-1.14;71.12;99541.28;5105198;28;19931;-85
2021/12/25 03:05:28;;;;;;;;;;;;;;;-1.08;71.67;99553.53;5089592;28;20012;-83
2021/12/25 03:07:53;;;;;;;;;;;;;;;-1.06;71.40;99562.22;5088487;28;19975;-83
2021/12/25 03:10:19;;;;;;;;;;;;;;;-1.34;72.57;99565.69;5089674;28;19920;-84
2021/12/25 03:13:05;;;;;;;;;;;;;;;-1.47;73.56;99562.72;5102137;28;19980;-84
2021/12/25 03:15:45;;;;;;;;;;;;;;;-1.33;72.93;99559.66;5109753;28;20713;-84
2021/12/25 03:18:10;;;;;;;;;;;;;;;-1.52;72.78;99555.66;5109389;28;19916;-83
2021/12/25 03:20:38;;;;;;;;;;;;;;;-1.39;72.85;99585.38;5101866;28;19920;-84
2021/12/25 03:23:04;;;;;;;;;;;;;;;-1.41;72.57;99593.06;5089776;28;19920;-84
2021/12/25 03:25:29;;;;;;;;;;;;;;;-1.42;72.84;99595.63;5088095;28;19924;-84
2021/12/25 03:27:56;;;;;;;;;;;;;;;-1.69;73.27;99604.25;5088909;28;20018;-84
2021/12/25 03:30:22;;;;;;;;;;;;;;;-1.86;74.00;99599.41;5088620;28;20077;-83
2021/12/25 03:32:47;;;;;;;;;;;;;;;-1.85;73.38;99589.97;5098745;28;19924;-84
2021/12/25 03:35:13;;;;;;;;;;;;;;;-1.69;73.27;99581.84;5110124;28;19919;-84
2021/12/25 03:37:39;;;;;;;;;;;;;;;-1.68;73.40;99606.03;5109019;28;19919;-84
2021/12/25 03:40:04;;;;;;;;;;;;;;;-1.42;72.32;99612.03;5109618;28;19964;-84
2021/12/25 03:42:30;;;;;;;;;;;;;;;-1.68;72.81;99611.19;5108098;28;20024;-84
2021/12/25 03:44:55;;;;;;;;;;;;;;;-1.49;73.18;99603.19;5108671;28;20005;-83
2021/12/25 03:47:32;;;;;;;;;;;;;;;-1.23;72.48;99597.09;5108723;28;19919;-84
2021/12/25 03:58:21;;;;;;;;;;;;;;;-1.03;71.07;99600.28;5107403;28;19953;-85
2021/12/25 04:00:48;;;;;;;;;;;;;;;-0.98;70.83;99586.63;5108988;28;19919;-84
2021/12/25 04:03:28;;;;;;;;;;;;;;;-0.77;70.21;99591.56;5108082;28;20390;-83
2021/12/25 04:05:53;;;;;;;;;;;;;;;-0.94;70.28;99587.59;5109248;28;20382;-84
2021/12/25 04:08:23;;;;;;;;;;;;;;;-1.59;72.16;99608.00;5108949;28;19923;-83
2021/12/25 04:10:52;;;;;;;;;;;;;;;-1.92;73.58;99624.19;5099237;28;19924;-87
2021/12/25 04:13:19;;;;;;;;;;;;;;;-1.72;73.97;99607.63;5088120;28;20290;-87
2021/12/25 04:15:45;;;;;;;;;;;;;;;-1.26;72.58;99609.09;5086917;28;19920;-84
2021/12/25 04:18:10;;;;;;;;;;;;;;;-1.26;72.33;99601.31;5088013;28;20726;-85
2021/12/25 04:20:36;;;;;;;;;;;;;;;-1.08;71.69;99611.38;5107690;28;20302;-84
2021/12/25 04:23:06;;;;;;;;;;;;;;;-1.03;71.33;99613.22;5108244;28;19920;-84
2021/12/25 04:25:34;;;;;;;;;;;;;;;-0.96;70.60;99604.78;5108101;28;20483;-84
2021/12/25 04:28:10;;;;;;;;;;;;;;;-1.16;70.99;99594.72;5107833;28;19962;-84
2021/12/25 05:03:06;;;;;;;;;;;;;;;-1.51;72.24;99625.56;5087332;28;19923;-84
2021/12/25 05:05:33;;;;;;;;;;;;;;;-1.94;74.60;99641.38;5086400;28;19970;-84
2021/12/25 05:07:58;;;;;;;;;;;;;;;-1.58;73.96;99628.75;5087471;28;19935;-84
2021/12/25 05:10:24;;;;;;;;;;;;;;;-1.50;73.33;99637.69;5095072;28;19920;-84
2021/12/25 05:12:49;;;;;;;;;;;;;;;-1.34;72.57;99635.56;5107699;28;19916;-85
2021/12/25 05:15:14;;;;;;;;;;;;;;;-1.07;71.90;99632.94;5107240;28;20412;-84
2021/12/25 05:17:39;;;;;;;;;;;;;;;-1.01;71.67;99642.63;5106947;28;20377;-84
2021/12/25 05:20:05;;;;;;;;;;;;;;;-1.02;71.47;99644.34;5106500;28;20389;-84
2021/12/25 05:22:31;;;;;;;;;;;;;;;-0.98;70.37;99634.94;5105644;28;19954;-84
2021/12/25 05:24:56;;;;;;;;;;;;;;;-1.40;71.85;99646.59;5106949;28;20353;-85
2021/12/25 05:27:22;;;;;;;;;;;;;;;-1.63;72.53;99657.06;5107290;28;19996;-85
2021/12/25 05:29:48;;;;;;;;;;;;;;;-1.50;72.24;99639.34;5107548;28;19963;-85
2021/12/25 05:32:13;;;;;;;;;;;;;;;-1.69;73.54;99643.94;5106610;28;20389;-85
2021/12/25 05:34:39;;;;;;;;;;;;;;;-1.54;73.39;99651.31;5106156;28;20007;-84
2021/12/25 05:37:05;;;;;;;;;;;;;;;-1.62;72.98;99653.66;5105327;28;19926;-84
2021/12/25 05:39:30;;;;;;;;;;;;;;;-1.37;72.45;99662.22;5106756;28;19923;-84
2021/12/25 05:41:56;;;;;;;;;;;;;;;-1.16;72.33;99640.44;5106871;28;19927;-85
2021/12/25 05:44:22;;;;;;;;;;;;;;;-1.40;73.01;99646.59;5106100;28;19921;-83
2021/12/25 05:46:48;;;;;;;;;;;;;;;-1.55;72.72;99656.44;5106725;28;19924;-83
2021/12/25 05:49:13;;;;;;;;;;;;;;;-1.13;72.25;99640.53;5104793;28;19990;-84
2021/12/25 05:51:39;;;;;;;;;;;;;;;-1.04;71.45;99642.53;5107351;28;19920;-84
2021/12/25 05:54:05;;;;;;;;;;;;;;;-0.99;71.91;99644.44;5106615;28;19922;-85
2021/12/25 05:56:30;;;;;;;;;;;;;;;-0.90;70.71;99654.19;5107523;28;20038;-84
2021/12/25 05:58:56;;;;;;;;;;;;;;;-1.06;71.10;99652.84;5106744;28;19920;-84
2021/12/25 06:01:21;;;;;;;;;;;;;;;-1.03;71.85;99652.06;5107252;28;20426;-83
2021/12/25 06:03:46;;;;;;;;;;;;;;;-1.09;71.52;99655.34;5104985;28;20431;-84
2021/12/25 06:06:12;;;;;;;;;;;;;;;-1.12;71.59;99653.53;5107212;28;19927;-84
2021/12/25 06:08:37;;;;;;;;;;;;;;;-1.06;71.92;99654.56;5107214;28;19955;-83
2021/12/25 06:11:03;;;;;;;;;;;;;;;-0.88;71.50;99655.13;5105547;28;19967;-84
2021/12/25 06:13:29;;;;;;;;;;;;;;;-0.92;71.60;99658.44;5107148;28;20008;-84
2021/12/25 06:15:56;;;;;;;;;;;;;;;-0.94;71.71;99648.03;5107504;28;20731;-83
2021/12/25 06:18:21;;;;;;;;;;;;;;;-0.85;71.09;99633.59;5107404;28;19920;-82
2021/12/25 06:20:47;;;;;;;;;;;;;;;-1.07;71.85;99632.94;5107321;28;20420;-84
2021/12/25 06:23:12;;;;;;;;;;;;;;;-1.12;72.35;99650.94;5106835;28;19920;-83
2021/12/25 06:25:37;;;;;;;;;;;;;;;-1.68;75.40;99679.31;5106567;28;20015;-84
2021/12/25 06:28:03;;;;;;;;;;;;;;;-1.72;76.31;99682.63;5107575;28;19941;-83
2021/12/25 06:30:28;;;;;;;;;;;;;;;-1.82;76.62;99689.19;5110650;27;20385;-84
2021/12/25 06:32:54;;;;;;;;;;;;;;;-1.75;76.77;99697.16;5104448;27;20481;-84
2021/12/25 06:35:19;;;;;;;;;;;;;;;-1.66;76.50;99690.59;5090458;28;20313;-84
2021/12/25 06:37:46;;;;;;;;;;;;;;;-1.36;76.22;99694.16;5087795;28;19924;-82
2021/12/25 06:40:17;;;;;;;;;;;;;;;-1.08;74.73;99701.13;5090321;28;20382;-81
2021/12/25 06:42:42;;;;;;;;;;;;;;;-0.79;72.93;99683.91;5099049;28;19926;-83
2021/12/25 06:45:08;;;;;;;;;;;;;;;-0.68;72.58;99683.31;5095809;28;19920;-84
2021/12/25 06:47:34;;;;;;;;;;;;;;;-0.88;72.36;99680.13;5090424;28;19916;-82
2021/12/25 06:49:59;;;;;;;;;;;;;;;-0.54;72.09;99682.03;5089973;28;20602;-83
2021/12/25 06:52:24;;;;;;;;;;;;;;;-0.65;72.54;99696.38;5089710;28;19927;-84
2021/12/25 06:54:50;;;;;;;;;;;;;;;-0.46;72.21;99708.19;5090237;28;19927;-83
2021/12/25 06:57:17;;;;;;;;;;;;;;;-0.33;71.63;99706.81;5089832;28;19920;-83
2021/12/25 06:59:42;;;;;;;;;;;;;;;-0.30;70.97;99712.09;5100231;28;19924;-83
2021/12/25 07:02:08;;;;;;;;;;;;;;;-0.61;72.08;99716.38;5110788;28;20030;-82
2021/12/25 07:04:33;;;;;;;;;;;;;;;-0.39;72.51;99711.00;5092659;28;20036;-84
2021/12/25 07:06:59;;;;;;;;;;;;;;;-0.55;72.72;99720.00;5089165;28;19930;-83
2021/12/25 07:09:24;;;;;;;;;;;;;;;-0.17;72.25;99713.31;5088767;28;19959;-83
2021/12/25 07:11:49;;;;;;;;;;;;;;;0.16;71.15;99714.25;5094814;28;20008;-84
2021/12/25 07:14:15;;;;;;;;;;;;;;;0.27;71.18;99711.09;5109946;28;20015;-83
2021/12/25 07:16:40;;;;;;;;;;;;;;;0.25;71.57;99726.63;5108816;27;19962;-82
2021/12/25 07:19:06;;;;;;;;;;;;;;;0.55;70.34;99725.66;5110244;28;20312;-82
2021/12/25 07:21:32;;;;;;;;;;;;;;;0.84;69.36;99722.91;5109522;28;20374;-83
2021/12/25 07:23:57;;;;;;;;;;;;;;;0.81;69.66;99728.91;5109292;28;19923;-83
2021/12/25 07:26:23;;;;;;;;;;;;;;;0.87;69.64;99731.66;5109441;28;19920;-83
2021/12/25 07:28:48;;;;;;;;;;;;;;;1.15;68.66;99721.06;5109917;28;19973;-82
2021/12/25 07:31:14;;;;;;;;;;;;;;;1.06;68.66;99732.09;5109948;28;20002;-83
2021/12/25 07:33:40;;;;;;;;;;;;;;;0.90;69.63;99751.66;5109514;28;20421;-82
2021/12/25 07:36:06;;;;;;;;;;;;;;;0.78;68.65;99740.94;5109784;28;19927;-83
2021/12/25 07:38:32;;;;;;;;;;;;;;;0.90;69.91;99738.66;5109615;28;19926;-83
2021/12/25 07:40:57;;;;;;;;;;;;;;;0.86;70.60;99727.28;5109411;28;19928;-82
2021/12/25 07:43:22;;;;;;;;;;;;;;;1.07;70.00;99749.47;5109523;28;20002;-83
2021/12/25 07:45:50;;;;;;;;;;;;;;;1.31;69.44;99745.66;5109376;27;20007;-84
2021/12/25 07:48:18;;;;;;;;;;;;;;;1.79;67.22;99729.38;5108863;28;19920;-82
2021/12/25 07:50:44;;;;;;;;;;;;;;;2.04;67.47;99719.47;5108966;28;19926;-85
2021/12/25 07:53:10;;;;;;;;;;;;;;;2.09;66.75;99723.06;5109010;28;19915;-82
2021/12/25 07:55:36;;;;;;;;;;;;;;;2.29;66.46;99731.28;5109207;28;20398;-84
2021/12/25 07:58:01;;;;;;;;;;;;;;;2.20;66.67;99738.91;5107655;28;19927;-85
2021/12/25 08:00:27;;;;;;;;;;;;;;;2.52;66.10;99731.69;5107628;28;19943;-85
2021/12/25 08:02:53;;;;;;;;;;;;;;;2.45;65.90;99733.28;5108980;28;19983;-85
2021/12/25 08:05:18;;;;;;;;;;;;;;;2.79;65.26;99736.50;5108333;28;20010;-85
2021/12/25 08:07:44;;;;;;;;;;;;;;;2.77;65.18;99738.22;5108222;28;19930;-84
2021/12/25 08:10:13;;;;;;;;;;;;;;;3.00;64.12;99743.81;5108389;28;20305;-85
2021/12/25 08:12:49;;;;;;;;;;;;;;;3.37;62.39;99739.16;5108664;28;19922;-84
2021/12/25 08:15:15;;;;;;;;;;;;;;;3.43;63.24;99737.50;5108334;28;19972;-85
2021/12/25 08:17:41;;;;;;;;;;;;;;;3.62;62.76;99743.88;5107580;28;19927;-86
2021/12/25 08:20:07;;;;;;;;;;;;;;;3.76;62.47;99745.78;5108229;28;19919;-84
2021/12/25 08:22:33;;;;;;;;;;;;;;;3.66;62.93;99733.50;5108154;27;19924;-85
2021/12/25 08:24:58;;;;;;;;;;;;;;;3.76;62.75;99721.44;5108326;28;19922;-85
2021/12/25 08:27:23;;;;;;;;;;;;;;;4.15;61.75;99735.81;5108546;28;19920;-84
2021/12/25 08:29:49;;;;;;;;;;;;;;;4.18;61.86;99741.09;5108282;28;19926;-84
2021/12/25 08:32:14;;;;;;;;;;;;;;;4.52;61.53;99730.13;5107266;28;19923;-84
2021/12/25 08:34:40;;;;;;;;;;;;;;;4.70;60.40;99719.88;5108170;28;20311;-84
2021/12/25 08:37:06;;;;;;;;;;;;;;;4.81;59.98;99709.50;5106335;28;20666;-84
2021/12/25 08:39:31;;;;;;;;;;;;;;;4.56;61.69;99716.25;5108083;28;19995;-84
2021/12/25 08:42:02;;;;;;;;;;;;;;;4.83;60.51;99720.84;5107578;28;19981;-84
2021/12/25 08:47:00;;;;;;;;;;;;;;;4.65;60.54;99719.81;5107576;28;19926;-84
2021/12/25 08:49:28;;;;;;;;;;;;;;;4.46;61.14;99724.00;5108166;28;20018;-84
2021/12/25 08:51:55;;;;;;;;;;;;;;;4.48;61.21;99724.88;5107452;28;19973;-85
2021/12/25 08:54:20;;;;;;;;;;;;;;;4.76;61.01;99709.47;5108174;28;19954;-82
2021/12/25 08:56:45;;;;;;;;;;;;;;;5.02;60.24;99716.66;5107947;28;19951;-84
2021/12/25 08:59:11;;;;;;;;;;;;;;;4.84;61.24;99706.91;5105485;28;19929;-85
2021/12/25 09:01:36;;;;;;;;;;;;;;;5.10;60.99;99699.28;5107669;28;19919;-85
2021/12/25 09:04:02;;;;;;;;;;;;;;;4.96;61.33;99698.31;5106160;28;19920;-84
2021/12/25 09:06:27;;;;;;;;;;;;;;;5.01;61.14;99691.38;5108167;28;20004;-84
2021/12/25 09:08:53;;;;;;;;;;;;;;;5.15;62.05;99688.84;5107546;28;20031;-84
2021/12/25 09:11:21;;;;;;;;;;;;;;;5.45;61.19;99689.91;5107079;28;20226;-84
2021/12/25 09:13:47;;;;;;;;;;;;;;;5.43;61.18;99687.28;5107852;28;19924;-84
2021/12/25 09:16:12;;;;;;;;;;;;;;;5.58;60.69;99686.50;5107712;28;19966;-85
2021/12/25 09:18:38;;;;;;;;;;;;;;;5.85;59.86;99672.63;5107431;28;20451;-84
2021/12/25 09:21:03;;;;;;;;;;;;;;;5.90;59.50;99665.69;5106348;28;19926;-84
2021/12/25 09:23:28;;;;;;;;;;;;;;;6.07;58.74;99662.25;5106960;28;19943;-85
2021/12/25 09:25:54;;;;;;;;;;;;;;;6.26;58.26;99656.22;5107583;28;20082;-84
2021/12/25 09:28:19;;;;;;;;;;;;;;;6.40;57.39;99644.88;5107450;28;20388;-85
2021/12/25 09:30:45;;;;;;;;;;;;;;;6.61;56.37;99658.00;5107461;28;19977;-85
2021/12/25 09:33:10;;;;;;;;;;;;;;;6.69;56.48;99660.63;5107201;28;20022;-84
2021/12/25 09:35:36;;;;;;;;;;;;;;;6.87;55.86;99653.63;5105988;28;19920;-85
2021/12/25 09:38:01;;;;;;;;;;;;;;;7.06;55.43;99638.72;5107505;28;20355;-84
2021/12/25 09:40:27;;;;;;;;;;;;;;;7.06;55.18;99638.72;5105607;28;19931;-84
2021/12/25 09:42:52;;;;;;;;;;;;;;;7.06;55.16;99630.88;5106942;28;19920;-86
2021/12/25 09:45:18;;;;;;;;;;;;;;;7.21;55.88;99627.34;5106775;28;20343;-85
2021/12/25 09:47:44;;;;;;;;;;;;;;;7.21;56.88;99628.22;5107117;28;19972;-85
2021/12/25 09:50:10;;;;;;;;;;;;;;;7.48;56.67;99626.41;5106391;28;19927;-86
2021/12/25 09:52:35;;;;;;;;;;;;;;;7.34;54.90;99629.94;5107703;27;20393;-84
2021/12/25 09:55:00;;;;;;;;;;;;;;;7.30;55.27;99622.94;5106614;28;19959;-85
2021/12/25 09:57:26;;;;;;;;;;;;;;;7.46;54.66;99613.28;5107166;28;19920;-85
2021/12/25 09:59:52;;;;;;;;;;;;;;;7.67;54.54;99606.19;5107237;28;20367;-86
2021/12/25 10:02:17;;;;;;;;;;;;;;;7.71;55.22;99603.53;5108573;28;19924;-84
2021/12/25 10:04:45;;;;;;;;;;;;;;;7.95;54.28;99598.16;5110448;28;20845;-83
2021/12/25 10:07:19;;;;;;;;;;;;;;;7.78;53.60;99603.50;5111083;28;19927;-84
2021/12/25 10:09:53;;;;;;;;;;;;;;;7.88;54.29;99603.47;5111232;28;20518;-85
2021/12/25 10:12:19;;;;;;;;;;;;;;;7.97;53.92;99591.16;5109846;28;19916;-84
2021/12/25 10:14:51;;;;;;;;;;;;;;;8.09;53.56;99577.06;5110812;28;19930;-85
2021/12/25 10:17:18;;;;;;;;;;;;;;;8.23;52.51;99577.84;5110709;27;19927;-86
2021/12/25 10:19:58;;;;;;;;;;;;;;;8.27;53.37;99579.56;5111232;28;19968;-85
2021/12/25 10:22:23;;;;;;;;;;;;;;;8.17;53.34;99576.13;5090642;28;20720;-85
2021/12/25 10:25:02;;;;;;;;;;;;;;;8.24;53.48;99579.59;5089729;28;19999;-85
2021/12/25 10:27:27;;;;;;;;;;;;;;;8.30;52.35;99570.78;5090625;28;20003;-84
2021/12/25 10:30:00;;;;;;;;;;;;;;;8.36;52.87;99571.59;5101053;28;20018;-84
2021/12/25 10:32:25;;;;;;;;;;;;;;;8.84;51.78;99576.47;5111099;28;19931;-88
2021/12/25 10:34:51;;;;;;;;;;;;;;;8.94;50.99;99572.00;5110213;28;19916;-84
2021/12/25 10:37:20;;;;;;;;;;;;;;;9.11;50.68;99572.69;5110617;28;19919;-84
2021/12/25 10:39:46;;;;;;;;;;;;;;;9.20;50.46;99566.44;5111176;28;19916;-84
2021/12/25 10:42:18;;;;;;;;;;;;;;;9.32;50.71;99568.06;5109415;28;20006;-83
2021/12/25 10:44:45;;;;;;;;;;;;;;;9.38;50.45;99559.25;5111018;28;19931;-84
2021/12/25 10:47:10;;;;;;;;;;;;;;;9.53;50.81;99563.41;5109692;28;20354;-84
2021/12/25 10:49:41;;;;;;;;;;;;;;;9.66;50.40;99557.13;5110596;28;19919;-85
2021/12/25 10:52:11;;;;;;;;;;;;;;;9.84;49.01;99556.84;5109552;28;19927;-84
2021/12/25 10:54:41;;;;;;;;;;;;;;;9.72;49.97;99548.25;5110257;28;19943;-84
2021/12/25 10:57:07;;;;;;;;;;;;;;;9.76;49.16;99542.94;5110089;28;19926;-84
2021/12/25 10:59:44;;;;;;;;;;;;;;;9.82;48.93;99549.84;5110814;28;20019;-84
2021/12/25 11:02:09;;;;;;;;;;;;;;;9.95;48.72;99540.03;5110604;28;20008;-84
2021/12/25 11:04:36;;;;;;;;;;;;;;;9.97;49.12;99541.72;5110583;28;20401;-84
2021/12/25 11:07:15;;;;;;;;;;;;;;;10.02;48.92;99539.03;5109445;28;20377;-84
2021/12/25 11:09:40;;;;;;;;;;;;;;;10.13;48.47;99528.31;5109912;28;19923;-85
2021/12/25 11:12:19;;;;;;;;;;;;;;;10.20;49.43;99530.84;5109695;28;19926;-84
2021/12/25 11:14:45;;;;;;;;;;;;;;;10.17;49.88;99522.97;5109263;28;19916;-84
2021/12/25 11:17:26;;;;;;;;;;;;;;;10.24;49.71;99523.75;5108782;28;19942;-84
2021/12/25 11:20:02;;;;;;;;;;;;;;;10.33;49.44;99522.75;5109964;28;19919;-85
2021/12/25 11:22:44;;;;;;;;;;;;;;;10.17;49.47;99512.44;5110153;28;19935;-84
2021/12/25 11:25:10;;;;;;;;;;;;;;;10.39;49.53;99518.28;5109644;28;19920;-87
2021/12/25 11:27:36;;;;;;;;;;;;;;;10.48;49.31;99514.56;5109413;28;19931;-83
2021/12/25 11:30:02;;;;;;;;;;;;;;;10.58;48.71;99525.81;5109563;28;19920;-85
2021/12/25 11:32:27;;;;;;;;;;;;;;;10.44;48.82;99512.03;5109803;28;20043;-85
2021/12/25 11:34:52;;;;;;;;;;;;;;;10.50;48.62;99511.91;5109428;28;20014;-85
2021/12/25 11:37:18;;;;;;;;;;;;;;;10.57;48.92;99501.22;5109345;28;19919;-85
2021/12/25 11:39:44;;;;;;;;;;;;;;;10.82;48.35;99507.84;5109158;28;20303;-85
2021/12/25 11:42:10;;;;;;;;;;;;;;;10.81;48.32;99506.94;5108505;28;19931;-84
2021/12/25 11:44:49;;;;;;;;;;;;;;;10.75;47.89;99502.66;5109352;28;20011;-85
2021/12/25 11:47:32;;;;;;;;;;;;;;;10.85;47.34;99503.34;5109042;28;19925;-85
2021/12/25 11:50:00;;;;;;;;;;;;;;;10.86;47.88;99496.28;5109679;28;19931;-84
2021/12/25 11:52:34;;;;;;;;;;;;;;;10.92;47.32;99496.19;5087032;28;19962;-84
2021/12/25 11:55:29;;;;;;;;;;;;;;;10.79;47.45;99490.28;5088542;28;20014;-85
2021/12/25 12:00:33;;;;;;;;;;;;;;;11.04;47.26;99484.53;5088883;28;19920;-85
2021/12/25 12:02:58;;;;;;;;;;;;;;;11.05;46.81;99481.00;5091622;28;20022;-83
2021/12/25 12:05:26;;;;;;;;;;;;;;;11.09;46.50;99477.38;5109149;28;20007;-85
2021/12/25 12:07:57;;;;;;;;;;;;;;;11.21;45.97;99471.81;5108557;27;19927;-85
2021/12/25 12:10:42;;;;;;;;;;;;;;;11.09;46.57;99474.72;5108632;28;19922;-86
2021/12/25 12:13:15;;;;;;;;;;;;;;;11.15;46.88;99461.41;5107691;28;20022;-85
2021/12/25 12:15:45;;;;;;;;;;;;;;;11.13;46.66;99465.84;5108431;28;19969;-85
2021/12/25 12:18:32;;;;;;;;;;;;;;;11.29;46.03;99459.34;5108449;28;20719;-85
2021/12/25 12:21:07;;;;;;;;;;;;;;;11.42;45.29;99459.94;5108989;28;19916;-86
2021/12/25 12:23:55;;;;;;;;;;;;;;;11.48;44.72;99461.59;5107494;28;19920;-86
2021/12/25 12:26:39;;;;;;;;;;;;;;;11.43;44.66;99456.41;5107434;28;19916;-86
2021/12/25 12:29:05;;;;;;;;;;;;;;;11.49;44.69;99457.16;5108706;28;19916;-86
2021/12/25 12:31:36;;;;;;;;;;;;;;;11.54;44.66;99447.34;5108671;28;20290;-86
2021/12/25 12:34:02;;;;;;;;;;;;;;;11.73;45.13;99451.31;5106960;28;19930;-86
2021/12/25 12:36:27;;;;;;;;;;;;;;;11.54;46.17;99447.34;5108247;28;20405;-85
2021/12/25 12:39:11;;;;;;;;;;;;;;;11.45;46.27;99437.88;5108256;28;19972;-85
2021/12/25 12:41:42;;;;;;;;;;;;;;;11.41;46.47;99441.50;5107645;28;19950;-85
2021/12/25 12:44:11;;;;;;;;;;;;;;;11.62;46.41;99445.44;5107851;28;19923;-85
2021/12/25 12:46:53;;;;;;;;;;;;;;;11.41;47.03;99454.69;5107190;28;19966;-86
2021/12/25 12:49:19;;;;;;;;;;;;;;;11.74;46.93;99449.53;5107809;28;19932;-87
2021/12/25 12:51:45;;;;;;;;;;;;;;;11.59;47.68;99451.63;5107702;28;19946;-86
2021/12/25 12:54:10;;;;;;;;;;;;;;;11.64;47.50;99448.88;5107843;28;20367;-86
2021/12/25 12:56:36;;;;;;;;;;;;;;;11.59;47.88;99442.84;5108358;28;20320;-86
2021/12/25 12:59:04;;;;;;;;;;;;;;;11.65;47.57;99443.56;5107831;28;19998;-87
2021/12/25 13:01:29;;;;;;;;;;;;;;;11.54;47.68;99448.25;5108169;28;19926;-87
2021/12/25 13:03:56;;;;;;;;;;;;;;;11.37;48.16;99445.97;5108244;28;19920;-86
2021/12/25 13:06:25;;;;;;;;;;;;;;;11.34;49.17;99450.44;5094870;28;19931;-86
2021/12/25 13:08:51;;;;;;;;;;;;;;;11.19;49.02;99446.38;5087665;28;19924;-87
2021/12/25 13:11:23;;;;;;;;;;;;;;;11.31;48.89;99448.75;5086722;28;20295;-87
2021/12/25 13:14:00;;;;;;;;;;;;;;;11.36;48.84;99443.38;5086807;28;19930;-87
2021/12/25 13:16:33;;;;;;;;;;;;;;;11.41;48.26;99446.78;5087419;28;19959;-86
2021/12/25 13:19:00;;;;;;;;;;;;;;;11.40;48.61;99453.84;5086513;28;19920;-87
2021/12/25 13:21:27;;;;;;;;;;;;;;;11.10;48.67;99450.94;5087948;28;19927;-86
2021/12/25 13:23:55;;;;;;;;;;;;;;;11.17;48.47;99456.97;5086720;28;19931;-86
2021/12/25 13:26:32;;;;;;;;;;;;;;;11.38;48.17;99457.41;5087361;28;19959;-86
2021/12/25 13:28:58;;;;;;;;;;;;;;;11.41;47.78;99457.34;5086517;28;19981;-87
2021/12/25 13:31:24;;;;;;;;;;;;;;;11.62;47.29;99462.13;5087125;28;20385;-86
2021/12/25 13:34:00;;;;;;;;;;;;;;;11.49;48.74;99459.81;5103155;28;20438;-86
2021/12/25 13:36:35;;;;;;;;;;;;;;;11.67;48.30;99461.16;5104190;28;19927;-87
2021/12/25 13:39:15;;;;;;;;;;;;;;;11.57;48.60;99461.38;5111610;28;19919;-86
2021/12/25 13:41:42;;;;;;;;;;;;;;;11.61;48.38;99457.75;5111294;28;20365;-87
2021/12/25 13:44:07;;;;;;;;;;;;;;;11.50;48.45;99465.06;5111327;28;19945;-87
2021/12/25 13:46:46;;;;;;;;;;;;;;;11.56;48.72;99454.34;5111478;28;20378;-87
2021/12/25 13:49:30;;;;;;;;;;;;;;;11.56;48.47;99454.34;5108128;28;19915;-87
2021/12/25 13:51:57;;;;;;;;;;;;;;;11.56;48.34;99454.34;5091154;28;19920;-86
2021/12/25 13:54:23;;;;;;;;;;;;;;;11.70;48.23;99456.69;5090041;28;20409;-87
2021/12/25 13:56:49;;;;;;;;;;;;;;;11.59;48.31;99461.34;5091173;28;19920;-87
2021/12/25 13:59:15;;;;;;;;;;;;;;;11.71;48.12;99460.16;5104683;28;19916;-86
2021/12/25 14:01:42;;;;;;;;;;;;;;;11.59;48.48;99459.56;5111448;28;19916;-86
2021/12/25 14:04:12;;;;;;;;;;;;;;;11.40;48.77;99458.22;5111529;28;19926;-86